createdAt,value
2022-12-03T06:24:56.004Z,16.73
2022-12-03T06:27:58.903Z,15.70
2022-12-03T06:31:00.661Z,15.52
2022-12-03T06:34:02.518Z,12.45
2022-12-03T06:37:04.232Z,13.48
2022-12-03T06:40:06.644Z,13.75
2022-12-03T06:43:09.269Z,13.77
2022-12-03T06:46:11.266Z,16.85
2022-12-03T06:49:12.975Z,13.13
2022-12-03T06:52:14.680Z,16.15
2022-12-03T06:55:16.959Z,12.00
2022-12-03T06:58:18.685Z,15.73
2022-12-03T07:01:20.691Z,15.80
2022-12-03T07:04:22.693Z,10.40
2022-12-03T07:07:24.543Z,12.40
2022-12-03T07:10:26.237Z,14.02
2022-12-03T07:13:27.908Z,13.82
2022-12-03T07:16:29.953Z,16.00
2022-12-03T07:19:32.967Z,15.48
2022-12-03T07:22:35.074Z,12.75
2022-12-03T07:25:36.743Z,8.60
2022-12-03T07:28:38.415Z,18.83
2022-12-03T07:31:40.283Z,9.25
2022-12-03T07:34:42.246Z,11.45
2022-12-03T07:37:43.934Z,11.00
2022-12-03T07:40:45.701Z,13.05
2022-12-03T07:43:47.578Z,14.63
2022-12-03T07:46:49.345Z,6.07
2022-12-03T07:49:51.122Z,7.88
2022-12-03T07:52:52.846Z,10.80
2022-12-03T07:55:54.741Z,8.40
2022-12-03T07:58:56.607Z,10.05
2022-12-03T08:01:58.364Z,11.50
2022-12-03T08:05:00.463Z,23.10
2022-12-03T08:08:02.172Z,9.85
2022-12-03T08:11:03.911Z,12.63
2022-12-03T08:14:15.638Z,11.43
2022-12-03T08:17:18.562Z,8.07
2022-12-03T08:20:21.701Z,8.98
2022-12-03T08:23:24.384Z,9.25
2022-12-03T08:26:26.660Z,12.88
2022-12-03T08:29:28.399Z,7.45
2022-12-03T08:32:31.444Z,9.10
2022-12-03T08:35:33.514Z,7.50
2022-12-03T08:38:35.200Z,8.85
2022-12-03T08:41:55.614Z,12.25
2022-12-03T08:45:20.473Z,7.75
2022-12-03T08:48:33.677Z,9.70
2022-12-03T08:51:35.395Z,10.40
2022-12-03T08:54:37.177Z,7.50
2022-12-03T08:57:40.906Z,7.30
2022-12-03T09:06:50.733Z,7.88
2022-12-03T09:09:52.434Z,7.88
2022-12-03T09:12:54.120Z,7.55
2022-12-03T09:15:55.974Z,7.85
2022-12-03T09:18:57.652Z,6.60
2022-12-03T09:21:59.438Z,11.55
2022-12-03T09:25:01.130Z,7.50
2022-12-03T09:28:17.916Z,8.77
2022-12-03T09:31:19.843Z,9.55
2022-12-03T09:34:21.856Z,5.63
2022-12-03T09:37:23.536Z,5.90
2022-12-03T09:40:25.296Z,8.48
2022-12-03T09:43:49.487Z,6.00
2022-12-03T09:46:53.468Z,4.28
2022-12-03T09:49:55.352Z,7.30
2022-12-03T09:52:59.017Z,6.90
2022-12-03T09:59:02.874Z,5.82
2022-12-03T10:02:05.637Z,7.32
2022-12-03T10:05:07.804Z,6.50
2022-12-03T10:08:14.516Z,8.10
2022-12-03T10:11:17.432Z,8.23
2022-12-03T10:14:19.273Z,6.72
2022-12-03T10:17:20.986Z,8.32
2022-12-03T10:20:23.862Z,6.05
2022-12-03T10:23:27.434Z,5.85
2022-12-03T10:26:40.432Z,6.25
2022-12-03T10:29:42.179Z,7.68
2022-12-03T10:32:46.248Z,9.45
2022-12-03T10:35:48.085Z,11.68
2022-12-03T10:39:06.308Z,9.00
2022-12-03T10:42:15.980Z,4.93
2022-12-03T10:48:27.704Z,5.40
2022-12-03T10:51:29.397Z,13.63
2022-12-03T10:54:31.448Z,10.98
2022-12-03T10:57:33.141Z,15.88
2022-12-03T11:00:34.841Z,10.38
2022-12-03T11:03:36.716Z,6.25
2022-12-03T11:06:38.612Z,5.43
2022-12-03T11:09:40.356Z,7.90
2022-12-03T11:12:42.092Z,9.93
2022-12-03T11:15:44.443Z,6.72
2022-12-03T11:18:49.140Z,7.90
2022-12-03T11:22:06.079Z,6.57
2022-12-03T11:25:26.192Z,7.65
2022-12-03T11:28:27.887Z,4.97
2022-12-03T11:31:41.778Z,7.05
2022-12-03T11:34:44.090Z,7.75
2022-12-03T11:37:45.781Z,11.98
2022-12-03T11:41:07.677Z,8.73
2022-12-03T11:44:42.064Z,5.72
2022-12-03T11:48:01.280Z,5.28
2022-12-03T11:51:03.080Z,6.75
2022-12-03T11:54:04.930Z,7.55
2022-12-03T11:57:26.332Z,6.10
2022-12-03T12:00:28.426Z,8.05
2022-12-03T12:03:35.432Z,7.72
2022-12-03T12:06:44.415Z,5.65
2022-12-03T12:09:53.436Z,6.63
2022-12-03T12:12:57.306Z,10.93
2022-12-03T12:15:59.868Z,8.43
2022-12-03T12:19:27.545Z,7.25
2022-12-03T12:22:30.087Z,8.02
2022-12-03T12:25:40.077Z,6.18
2022-12-03T12:28:41.778Z,10.73
2022-12-03T12:31:43.508Z,10.48
2022-12-03T12:34:54.144Z,8.35
2022-12-03T12:38:08.649Z,6.03
2022-12-03T12:41:10.353Z,12.48
2022-12-03T12:44:13.936Z,9.70
2022-12-03T12:50:18.051Z,11.73
2022-12-03T12:53:34.010Z,13.45
2022-12-03T12:56:36.525Z,15.52
2022-12-03T12:59:38.197Z,10.80
2022-12-03T13:02:50.468Z,14.27
2022-12-03T13:05:52.712Z,12.05
2022-12-03T13:08:54.766Z,11.77
2022-12-03T13:12:01.086Z,13.57
2022-12-03T13:15:02.975Z,19.35
2022-12-03T13:18:36.809Z,18.50
2022-12-03T13:21:39.306Z,13.18
2022-12-03T13:24:43.795Z,13.73
2022-12-03T13:27:45.809Z,10.45
2022-12-03T13:30:47.496Z,15.77
2022-12-03T13:33:50.195Z,16.20
2022-12-03T13:36:57.643Z,12.05
2022-12-03T13:40:08.870Z,17.88
2022-12-03T13:43:12.147Z,16.88
2022-12-03T13:46:14.230Z,17.58
2022-12-03T13:49:19.204Z,14.20
2022-12-03T13:52:22.274Z,16.27
2022-12-03T13:55:30.963Z,12.93
2022-12-03T13:58:32.649Z,13.48
2022-12-03T14:01:34.661Z,15.18
2022-12-03T14:04:38.044Z,20.27
2022-12-03T14:07:39.774Z,22.02
2022-12-03T14:10:41.477Z,16.27
2022-12-03T14:13:43.235Z,14.48
2022-12-03T14:16:45.064Z,17.13
2022-12-03T14:19:46.791Z,18.20
2022-12-03T14:22:48.526Z,20.15
2022-12-03T14:25:50.272Z,15.15
2022-12-03T14:28:52.002Z,15.35
2022-12-03T14:31:53.800Z,17.67
2022-12-03T14:34:55.740Z,16.42
2022-12-03T14:37:57.469Z,19.33
2022-12-03T14:40:59.226Z,15.15
2022-12-03T14:44:01.223Z,17.88
2022-12-03T14:47:02.929Z,13.38
2022-12-03T14:50:05.277Z,17.10
2022-12-03T14:53:06.973Z,15.52
2022-12-03T14:56:08.990Z,15.25
2022-12-03T14:59:10.848Z,20.08
2022-12-03T15:02:12.861Z,22.85
2022-12-03T15:05:14.943Z,13.73
2022-12-03T15:08:16.633Z,17.85
2022-12-03T15:11:18.357Z,18.00
2022-12-03T15:14:20.175Z,18.60
2022-12-03T15:17:30.986Z,14.60
2022-12-03T15:20:35.339Z,13.60
2022-12-03T15:23:37.028Z,16.08
2022-12-03T15:26:38.716Z,15.93
2022-12-03T15:29:41.153Z,13.23
2022-12-03T15:32:42.840Z,17.67
2022-12-03T15:35:44.796Z,16.98
2022-12-03T15:38:46.450Z,18.80
2022-12-03T15:41:48.526Z,16.60
2022-12-03T15:44:50.478Z,13.13
2022-12-03T15:47:52.164Z,18.15
2022-12-03T15:50:53.870Z,16.30
2022-12-03T15:53:55.776Z,20.17
2022-12-03T15:56:57.807Z,21.20
2022-12-03T15:59:59.527Z,15.82
2022-12-03T16:03:01.425Z,18.23
2022-12-03T16:06:03.505Z,14.25
2022-12-03T16:09:05.180Z,17.13
2022-12-03T16:12:07.017Z,19.80
2022-12-03T16:15:09.237Z,18.45
2022-12-03T16:18:11.043Z,20.77
2022-12-03T16:21:12.728Z,17.42
2022-12-03T16:24:14.511Z,18.50
2022-12-03T16:27:16.189Z,17.88
2022-12-03T16:30:18.016Z,18.92
2022-12-03T16:33:25.652Z,17.45
2022-12-03T16:36:29.383Z,20.58
2022-12-03T16:39:31.084Z,19.08
2022-12-03T16:42:32.763Z,21.40
2022-12-03T16:45:53.450Z,21.92
2022-12-03T16:48:57.775Z,20.17
2022-12-03T16:51:59.552Z,20.02
2022-12-03T16:55:01.610Z,23.45
2022-12-03T16:58:03.295Z,23.38
2022-12-03T17:01:05.410Z,27.63
2022-12-03T17:04:07.312Z,22.40
2022-12-03T17:07:09.003Z,27.98
2022-12-03T17:10:11.249Z,14.07
2022-12-03T17:13:13.011Z,18.45
2022-12-03T17:16:15.009Z,22.25
2022-12-03T17:19:17.235Z,19.70
2022-12-03T17:22:19.049Z,20.88
2022-12-03T17:25:20.921Z,26.17
2022-12-03T17:28:22.616Z,25.10
2022-12-03T17:31:24.359Z,20.52
2022-12-03T17:34:26.272Z,22.60
2022-12-03T17:37:27.946Z,24.35
2022-12-03T17:40:29.781Z,17.00
2022-12-03T17:43:31.491Z,21.20
2022-12-03T17:46:33.514Z,19.35
2022-12-03T17:49:35.242Z,20.58
2022-12-03T17:52:36.936Z,17.70
2022-12-03T17:55:44.747Z,20.92
2022-12-03T17:58:46.816Z,18.05
2022-12-03T18:01:48.521Z,19.02
2022-12-03T18:04:50.541Z,17.45
2022-12-03T18:07:52.793Z,24.42
2022-12-03T18:10:54.559Z,27.67
2022-12-03T18:13:56.376Z,19.98
2022-12-03T18:16:58.105Z,22.60
2022-12-03T18:19:59.807Z,22.75
2022-12-03T18:23:01.875Z,25.00
2022-12-03T18:26:03.823Z,22.05
2022-12-03T18:29:05.565Z,23.40
2022-12-03T18:32:27.219Z,22.25
2022-12-03T18:35:30.615Z,17.30
2022-12-03T18:38:32.874Z,21.45
2022-12-03T18:41:34.679Z,21.33
2022-12-03T18:44:36.481Z,14.50
2022-12-03T18:47:38.242Z,15.27
2022-12-03T18:50:40.179Z,22.30
2022-12-03T18:53:42.352Z,18.83
2022-12-03T18:56:44.016Z,17.90
2022-12-03T18:59:45.735Z,17.77
2022-12-03T19:03:03.128Z,22.92
2022-12-03T19:06:05.963Z,20.85
2022-12-03T19:09:07.632Z,18.42
2022-12-03T19:12:14.391Z,21.08
2022-12-03T19:15:16.650Z,24.23
2022-12-03T19:18:18.359Z,18.15
2022-12-03T19:21:20.124Z,18.02
2022-12-03T19:24:24.835Z,23.23
2022-12-03T19:27:29.483Z,20.02
2022-12-03T19:30:31.182Z,19.98
2022-12-03T19:33:33.412Z,23.13
2022-12-03T19:36:35.255Z,20.35
2022-12-03T19:39:36.922Z,15.75
2022-12-03T19:42:39.370Z,21.42
2022-12-03T19:45:41.238Z,18.80
2022-12-03T19:48:43.097Z,24.17
2022-12-03T19:51:44.773Z,18.67
2022-12-03T19:54:46.751Z,20.65
2022-12-03T19:57:48.617Z,15.30
2022-12-03T20:00:50.381Z,19.13
2022-12-03T20:03:53.761Z,24.33
2022-12-03T20:06:55.433Z,19.08
2022-12-03T20:09:57.569Z,16.27
2022-12-03T20:12:59.500Z,19.73
2022-12-03T20:16:08.849Z,19.13
2022-12-03T20:19:12.087Z,21.70
2022-12-03T20:22:13.843Z,22.17
2022-12-03T20:25:15.539Z,21.13
2022-12-03T20:28:17.271Z,20.88
2022-12-03T20:31:20.377Z,15.75
2022-12-03T20:34:22.311Z,16.30
2022-12-03T20:37:24.008Z,20.23
2022-12-03T20:40:25.685Z,18.40
2022-12-03T20:43:27.405Z,23.13
2022-12-03T20:46:30.174Z,15.98
2022-12-03T20:49:31.894Z,19.33
2022-12-03T20:52:33.643Z,14.98
2022-12-03T20:55:35.363Z,17.98
2022-12-03T20:58:37.079Z,19.20
2022-12-03T21:01:40.119Z,17.13
2022-12-03T21:04:42.222Z,15.80
2022-12-03T21:07:43.981Z,17.35
2022-12-03T21:10:45.947Z,20.35
2022-12-03T21:13:47.956Z,20.50
2022-12-03T21:17:07.743Z,15.02
2022-12-03T21:20:10.976Z,22.77
2022-12-03T21:23:12.959Z,18.63
2022-12-03T21:26:16.727Z,18.95
2022-12-03T21:29:18.511Z,10.13
2022-12-03T21:32:20.203Z,19.77
2022-12-03T21:35:22.102Z,15.80
2022-12-03T21:38:24.042Z,16.98
2022-12-03T21:41:25.860Z,13.98
2022-12-03T21:44:27.746Z,16.90
2022-12-03T21:47:36.390Z,16.10
2022-12-03T21:50:40.193Z,16.48
2022-12-03T21:53:43.640Z,18.13
2022-12-03T21:56:45.430Z,19.55
2022-12-03T21:59:47.494Z,20.98
2022-12-03T22:02:49.229Z,18.27
2022-12-03T22:05:51.410Z,16.98
2022-12-03T22:08:53.083Z,20.27
2022-12-03T22:11:56.893Z,26.02
2022-12-03T22:14:58.823Z,31.50
2022-12-03T22:18:00.572Z,24.60
2022-12-03T22:21:06.241Z,21.67
2022-12-03T22:24:08.121Z,26.67
2022-12-03T22:27:09.822Z,25.85
2022-12-03T22:30:11.696Z,23.63
2022-12-03T22:33:14.200Z,22.77
2022-12-03T22:36:21.090Z,21.10
2022-12-03T22:39:23.379Z,24.60
2022-12-03T22:42:25.391Z,21.58
2022-12-03T22:45:27.230Z,26.83
2022-12-03T22:48:28.907Z,23.83
2022-12-03T22:51:30.639Z,13.63
2022-12-03T22:54:32.523Z,17.63
2022-12-03T22:57:34.198Z,17.42
2022-12-03T23:00:37.942Z,14.52
2022-12-03T23:06:41.928Z,20.95
2022-12-03T23:09:43.652Z,19.98
2022-12-03T23:12:45.370Z,18.48
2022-12-03T23:15:48.450Z,24.42
2022-12-03T23:18:50.364Z,21.38
2022-12-03T23:21:52.194Z,24.05
2022-12-03T23:24:53.872Z,20.63
2022-12-03T23:27:55.565Z,22.00
2022-12-03T23:30:57.628Z,19.77
2022-12-03T23:33:59.912Z,18.65
2022-12-03T23:37:01.710Z,19.25
2022-12-03T23:40:03.633Z,19.80
2022-12-03T23:43:05.349Z,17.27
2022-12-03T23:46:15.462Z,20.95
2022-12-03T23:49:17.204Z,17.63
